Time;durP1;ratioP1;P1;durP2;ratioP2;P2;SDS_P1;SDS_P2;PMS_P1;PMS_P2;Temp;Humidity;BMP_temperature;BMP_pressure;BME280_temperature;BME280_humidity;BME280_pressure;Samples;Min_cycle;Max_cycle;Signal;HPM_P1;HPM_P2
2021/06/07 00:00:35;;;;;;;;;9.00;7.50;;;;;20.28;53.20;101894.09;4863921;29;61271;-69
2021/06/07 00:03:00;;;;;;;;;8.00;7.25;;;;;20.53;53.14;101937.00;4901214;29;57728;-69
2021/06/07 00:05:26;;;;;;;;;7.50;7.50;;;;;20.56;53.35;101936.84;4894860;29;45431;-69
2021/06/07 00:07:51;;;;;;;;;7.50;6.75;;;;;20.37;52.80;101904.44;4883837;29;46188;-69
2021/06/07 00:10:17;;;;;;;;;8.00;8.00;;;;;20.48;53.04;101930.97;4866971;29;45395;-69
2021/06/07 00:12:42;;;;;;;;;8.00;7.75;;;;;20.43;53.35;101924.91;4895861;29;58175;-69
2021/06/07 00:15:10;;;;;;;;;9.00;7.00;;;;;20.12;53.08;101872.38;4856019;29;59250;-69
2021/06/07 00:17:36;;;;;;;;;8.00;7.00;;;;;20.26;52.76;101896.03;4896643;29;46693;-69
2021/06/07 00:20:06;;;;;;;;;11.25;10.00;;;;;20.40;53.39;101914.22;4883802;29;45644;-69
2021/06/07 00:22:31;;;;;;;;;14.25;13.75;;;;;20.40;53.31;101915.13;4883675;29;45470;-69
2021/06/07 00:24:56;;;;;;;;;7.75;6.50;;;;;20.42;53.28;101920.47;4883365;29;59515;-69
2021/06/07 00:27:22;;;;;;;;;8.00;8.00;;;;;20.39;53.43;101913.38;4868849;29;67235;-69
2021/06/07 00:29:47;;;;;;;;;8.50;7.25;;;;;20.38;53.34;101913.44;4896920;29;67838;-69
2021/06/07 00:32:13;;;;;;;;;8.75;8.75;;;;;20.31;53.15;101904.78;4889258;29;63830;-69
2021/06/07 00:34:38;;;;;;;;;6.75;6.75;;;;;20.32;53.64;101910.13;4894542;29;63512;-69
2021/06/07 00:37:03;;;;;;;;;6.75;6.75;;;;;20.32;53.25;101912.81;4883077;29;63797;-69
2021/06/07 00:39:29;;;;;;;;;7.75;6.50;;;;;19.99;53.64;101855.91;4891089;29;45367;-69
2021/06/07 00:41:54;;;;;;;;;9.00;9.00;;;;;20.13;53.54;101882.25;4900572;29;60735;-69
2021/06/07 00:44:21;;;;;;;;;6.75;6.75;;;;;20.25;53.41;101906.00;4883712;29;47599;-69
2021/06/07 00:46:46;;;;;;;;;7.25;7.25;;;;;20.16;53.30;101903.78;4883596;29;45376;-69
2021/06/07 00:49:12;;;;;;;;;6.25;6.25;;;;;20.08;53.57;101893.38;4883227;29;47835;-69
2021/06/07 00:51:37;;;;;;;;;5.75;5.75;;;;;19.97;53.60;101891.22;4863580;29;47993;-69
2021/06/07 00:54:03;;;;;;;;;8.25;7.00;;;;;20.13;53.84;101912.97;4884450;29;45554;-69
2021/06/07 00:56:28;;;;;;;;;6.25;6.25;;;;;20.12;53.98;101911.19;4883527;29;46907;-69
2021/06/07 00:58:54;;;;;;;;;7.00;7.00;;;;;20.12;53.48;101899.50;4877294;29;52315;-69
2021/06/07 01:01:21;;;;;;;;;4.00;4.00;;;;;20.10;53.65;101896.00;4865123;29;45375;-69
2021/06/07 01:03:50;;;;;;;;;6.00;6.00;;;;;20.13;53.77;101909.34;4885309;29;45542;-69
2021/06/07 01:06:16;;;;;;;;;8.00;7.00;;;;;20.07;53.45;101899.75;4886635;29;46138;-69
2021/06/07 01:08:41;;;;;;;;;6.75;5.75;;;;;20.09;53.62;101907.78;4872307;29;45385;-69
2021/06/07 01:11:07;;;;;;;;;6.75;6.75;;;;;20.05;54.09;101903.50;4898309;29;45228;-69
2021/06/07 01:13:32;;;;;;;;;7.25;7.25;;;;;20.03;53.75;101902.69;4894320;29;45374;-68
2021/06/07 01:15:58;;;;;;;;;6.50;6.50;;;;;19.95;53.54;101892.28;4886657;29;47813;-69
2021/06/07 01:18:24;;;;;;;;;7.25;7.25;;;;;19.98;53.48;101897.53;4878469;29;45399;-69
2021/06/07 01:20:54;;;;;;;;;8.00;8.00;;;;;19.87;53.24;101894.53;4903612;29;45507;-69
2021/06/07 01:23:19;;;;;;;;;6.25;6.25;;;;;19.88;53.32;101908.00;4895789;29;45738;-69
2021/06/07 01:25:45;;;;;;;;;6.25;6.25;;;;;19.85;53.55;101905.44;4885435;29;70103;-69
2021/06/07 01:28:12;;;;;;;;;8.25;7.75;;;;;19.84;53.53;101911.81;4887861;29;69844;-68
2021/06/07 01:30:40;;;;;;;;;8.00;7.00;;;;;19.67;53.54;101880.16;4902288;29;45419;-69
2021/06/07 01:33:06;;;;;;;;;4.75;4.75;;;;;19.65;53.62;101875.78;4892708;29;45512;-69
2021/06/07 01:35:32;;;;;;;;;8.50;7.25;;;;;19.43;53.57;101860.66;4886341;29;45451;-69
2021/06/07 01:37:57;;;;;;;;;11.75;8.50;;;;;19.68;53.73;101899.97;4877265;29;45592;-68
2021/06/07 01:40:31;;;;;;;;;8.50;7.00;;;;;19.54;53.62;101885.31;4891481;29;45481;-69
2021/06/07 01:42:57;;;;;;;;;7.25;6.25;;;;;19.63;54.21;101903.81;4895071;29;45517;-68
2021/06/07 01:45:23;;;;;;;;;6.00;5.00;;;;;19.62;53.85;101903.91;4900740;29;47329;-69
2021/06/07 01:47:49;;;;;;;;;6.25;6.25;;;;;19.62;54.20;101901.19;4878238;29;45366;-69
2021/06/07 01:50:15;;;;;;;;;4.50;4.25;;;;;19.62;54.04;101896.63;4875385;29;45500;-69
2021/06/07 01:52:44;;;;;;;;;9.00;6.75;;;;;19.49;54.17;101879.28;4895892;29;45455;-69
2021/06/07 01:55:11;;;;;;;;;6.25;6.00;;;;;19.58;53.80;101897.78;4900990;29;45659;-69
2021/06/07 01:57:38;;;;;;;;;7.00;7.00;;;;;19.28;54.17;101848.78;4887818;29;45476;-69
2021/06/07 02:00:07;;;;;;;;;6.25;6.25;;;;;19.60;54.28;101897.69;4871710;29;45597;-69
2021/06/07 02:02:33;;;;;;;;;8.25;8.00;;;;;19.57;54.29;101896.00;4899095;29;45399;-69
2021/06/07 02:04:58;;;;;;;;;8.00;8.00;;;;;19.54;54.26;101892.59;4886889;29;63997;-68
2021/06/07 02:07:23;;;;;;;;;6.50;6.50;;;;;19.40;53.76;101877.94;4899519;29;67928;-69
2021/06/07 02:09:49;;;;;;;;;7.75;6.50;;;;;19.50;54.45;101899.13;4897644;29;61867;-69
2021/06/07 02:12:14;;;;;;;;;7.50;7.50;;;;;19.20;54.06;101843.75;4878154;29;64524;-69
2021/06/07 02:14:39;;;;;;;;;6.50;6.50;;;;;19.42;54.58;101884.13;4887311;29;60687;-68
2021/06/07 02:17:05;;;;;;;;;5.00;5.00;;;;;19.49;54.35;101903.66;4875856;29;56461;-68
2021/06/07 02:19:30;;;;;;;;;10.25;8.00;;;;;19.44;54.09;101892.19;4881475;29;45580;-69
2021/06/07 02:21:56;;;;;;;;;9.25;9.25;;;;;19.48;54.23;101896.50;4895903;29;51570;-69
2021/06/07 02:24:21;;;;;;;;;6.25;6.25;;;;;19.48;54.38;101899.22;4886655;29;63224;-68
2021/06/07 02:26:46;;;;;;;;;8.50;7.25;;;;;19.46;54.55;101898.38;4854102;29;45738;-68
2021/06/07 02:29:13;;;;;;;;;5.75;5.75;;;;;19.47;54.52;101899.28;4893681;29;59874;-69
2021/06/07 02:31:39;;;;;;;;;8.75;8.00;;;;;19.41;54.57;101886.91;4895580;29;45177;-69
2021/06/07 02:34:06;;;;;;;;;9.00;8.25;;;;;19.40;54.51;101896.00;4871098;29;45724;-69
2021/06/07 02:36:33;;;;;;;;;6.75;6.25;;;;;19.40;54.86;101896.00;4868743;29;45488;-69
2021/06/07 02:38:58;;;;;;;;;9.00;8.25;;;;;19.39;54.60;101892.41;4885480;29;45579;-69
2021/06/07 02:41:24;;;;;;;;;7.00;7.00;;;;;19.33;54.51;101894.56;4877547;29;45560;-68
2021/06/07 02:43:49;;;;;;;;;5.75;5.75;;;;;19.32;54.88;101898.22;4887444;29;45328;-68
2021/06/07 02:46:15;;;;;;;;;7.75;7.75;;;;;19.30;55.06;101895.59;4871703;29;45418;-69
2021/06/07 02:48:40;;;;;;;;;7.75;7.50;;;;;19.29;54.96;101891.13;4900903;29;45515;-68
2021/06/07 02:51:05;;;;;;;;;9.50;8.25;;;;;19.27;54.85;101893.03;4885285;29;45433;-69
2021/06/07 02:53:31;;;;;;;;;10.25;7.00;;;;;19.22;55.05;101895.97;4887525;29;45391;-68
2021/06/07 02:55:56;;;;;;;;;6.75;6.75;;;;;19.20;54.72;101895.19;4887169;29;45467;-68
2021/06/07 02:58:22;;;;;;;;;7.50;7.50;;;;;19.22;55.16;101889.69;4888155;29;45618;-68
2021/06/07 03:00:52;;;;;;;;;7.25;6.00;;;;;19.20;55.22;101889.78;4888712;29;45548;-69
2021/06/07 03:03:17;;;;;;;;;8.75;6.50;;;;;19.16;55.26;101900.81;4903731;29;45316;-69
2021/06/07 03:05:43;;;;;;;;;8.75;8.00;;;;;18.97;55.55;101880.09;4893800;29;45328;-69
2021/06/07 03:08:11;;;;;;;;;7.25;7.25;;;;;19.03;55.50;101887.06;4883808;29;45488;-69
2021/06/07 03:10:36;;;;;;;;;9.50;8.50;;;;;19.11;55.60;101906.50;4859569;29;45490;-68
2021/06/07 03:13:02;;;;;;;;;8.25;7.75;;;;;18.98;55.44;101887.28;4897470;29;45268;-69
2021/06/07 03:15:28;;;;;;;;;11.00;11.00;;;;;19.07;55.24;101899.47;4885047;29;45289;-69
2021/06/07 03:17:53;;;;;;;;;7.00;6.25;;;;;19.11;55.65;101897.47;4884866;29;45276;-69
2021/06/07 03:20:22;;;;;;;;;8.25;8.25;;;;;19.07;55.53;101894.06;4884790;29;45522;-68
2021/06/07 03:22:47;;;;;;;;;9.25;8.00;;;;;19.06;55.79;101892.28;4884642;29;45457;-68
2021/06/07 03:25:12;;;;;;;;;9.50;9.50;;;;;19.02;55.98;101896.09;4884542;29;45438;-69
2021/06/07 03:27:38;;;;;;;;;10.50;9.00;;;;;19.01;55.92;101897.03;4886201;29;45380;-69
2021/06/07 03:30:05;;;;;;;;;8.50;7.25;;;;;19.00;55.51;101896.19;4900081;29;45437;-69
2021/06/07 03:32:30;;;;;;;;;7.00;7.00;;;;;18.95;55.53;101894.66;4890689;29;45373;-68
2021/06/07 03:34:56;;;;;;;;;7.25;7.00;;;;;18.92;56.05;101886.69;4893234;29;66706;-68
2021/06/07 03:37:21;;;;;;;;;9.75;8.25;;;;;18.98;55.85;101886.41;4883509;29;45697;-69
2021/06/07 03:39:47;;;;;;;;;7.50;7.50;;;;;18.97;55.74;101898.16;4884363;29;45383;-68
2021/06/07 03:42:13;;;;;;;;;9.25;9.25;;;;;18.96;55.84;101886.47;4884364;29;46113;-68
2021/06/07 03:44:38;;;;;;;;;10.75;9.00;;;;;18.93;55.42;101888.44;4884678;29;45460;-68
2021/06/07 03:47:04;;;;;;;;;11.50;11.00;;;;;18.94;55.53;101892.91;4883734;29;62100;-68
2021/06/07 03:49:29;;;;;;;;;10.75;9.00;;;;;18.90;55.70;101886.78;4883669;29;59779;-69
2021/06/07 03:51:54;;;;;;;;;13.50;12.00;;;;;18.84;55.52;101885.25;4883429;29;73464;-68
2021/06/07 03:54:20;;;;;;;;;11.25;8.75;;;;;18.72;56.06;101876.81;4892399;29;62440;-68
2021/06/07 03:56:45;;;;;;;;;12.50;11.50;;;;;18.76;55.94;101883.81;4899823;29;50122;-69
2021/06/07 03:59:12;;;;;;;;;9.75;9.50;;;;;18.69;55.74;101880.53;4884307;29;45552;-69
2021/06/07 04:01:38;;;;;;;;;11.50;10.00;;;;;18.70;56.19;101891.28;4894249;29;47097;-68
2021/06/07 04:04:03;;;;;;;;;13.75;13.00;;;;;18.69;55.85;101899.47;4893612;29;45520;-68
2021/06/07 04:06:29;;;;;;;;;10.25;7.50;;;;;18.66;55.99;101894.19;4884103;29;45445;-68
2021/06/07 04:08:56;;;;;;;;;9.00;9.00;;;;;18.65;56.08;101889.75;4883657;29;57815;-69
2021/06/07 04:11:23;;;;;;;;;8.25;8.25;;;;;18.63;56.15;101883.56;4883537;29;45913;-68
2021/06/07 04:13:49;;;;;;;;;13.50;13.25;;;;;18.62;56.46;101879.09;4892153;29;45477;-69
2021/06/07 04:16:14;;;;;;;;;13.50;11.50;;;;;18.53;56.08;101877.72;4883871;29;45385;-68
2021/06/07 04:18:40;;;;;;;;;11.00;11.00;;;;;18.52;56.27;101889.47;4866105;29;45446;-69
2021/06/07 04:21:05;;;;;;;;;10.25;10.25;;;;;18.48;56.66;101890.56;4900255;29;66343;-69
2021/06/07 04:23:30;;;;;;;;;11.25;11.25;;;;;18.46;56.55;101898.75;4896448;29;60546;-68
2021/06/07 04:25:56;;;;;;;;;11.50;10.50;;;;;18.44;56.40;101895.25;4900015;28;54096;-69
2021/06/07 04:28:21;;;;;;;;;13.00;10.00;;;;;18.41;56.36;101887.28;4897165;29;64898;-69
2021/06/07 04:30:47;;;;;;;;;12.25;10.50;;;;;18.40;56.83;101893.63;4887889;29;52511;-68
2021/06/07 04:33:12;;;;;;;;;11.75;10.50;;;;;18.37;56.39;101893.75;4892809;29;68088;-69
2021/06/07 04:35:37;;;;;;;;;12.50;11.00;;;;;18.32;56.35;101876.88;4902081;29;53729;-68
2021/06/07 04:38:03;;;;;;;;;10.75;10.75;;;;;18.43;56.72;101896.19;4885345;29;45885;-68
2021/06/07 04:40:33;;;;;;;;;12.50;11.25;;;;;18.36;56.29;101877.63;4898702;29;64987;-69
2021/06/07 04:42:59;;;;;;;;;13.00;11.75;;;;;18.40;56.53;101895.47;4902689;29;45436;-68
2021/06/07 04:45:25;;;;;;;;;9.75;8.75;;;;;18.40;56.43;101893.63;4896549;29;45862;-68
2021/06/07 04:47:50;;;;;;;;;11.00;11.00;;;;;18.41;56.44;101895.41;4902574;29;45488;-68
2021/06/07 04:50:17;;;;;;;;;11.25;11.25;;;;;18.41;56.80;101895.41;4905685;29;45984;-68
2021/06/07 04:52:58;;;;;;;;;14.25;12.00;;;;;18.38;56.61;101890.13;4905895;29;45267;-69
2021/06/07 04:55:30;;;;;;;;;13.50;12.25;;;;;18.44;56.49;101897.06;4897909;29;45454;-68
2021/06/07 04:57:56;;;;;;;;;12.00;10.75;;;;;18.38;56.53;101886.56;4886741;29;45452;-69
2021/06/07 05:00:22;;;;;;;;;13.50;12.50;;;;;18.38;55.95;101890.13;4888115;29;47023;-69
2021/06/07 05:02:48;;;;;;;;;12.25;12.00;;;;;18.37;56.27;101891.06;4903005;29;45334;-69
2021/06/07 05:05:14;;;;;;;;;12.75;10.00;;;;;18.37;56.75;101896.47;4905830;29;45298;-69
2021/06/07 05:07:39;;;;;;;;;12.50;12.50;;;;;18.36;56.20;101894.75;4905135;29;53917;-69
2021/06/07 05:10:05;;;;;;;;;13.00;11.75;;;;;18.31;56.43;101886.84;4892440;29;64429;-69
2021/06/07 05:12:31;;;;;;;;;14.50;12.75;;;;;18.36;56.29;101893.84;4886435;29;45345;-69
2021/06/07 05:14:59;;;;;;;;;14.75;13.00;;;;;18.34;56.46;101888.50;4887329;29;45341;-69
2021/06/07 05:17:25;;;;;;;;;13.50;13.00;;;;;18.40;56.68;101907.16;4889153;29;45348;-69
2021/06/07 05:19:50;;;;;;;;;12.50;12.50;;;;;18.41;56.57;101899.91;4875783;29;46128;-69
2021/06/07 05:22:16;;;;;;;;;10.75;9.25;;;;;18.42;56.55;101896.25;4872749;29;45475;-69
2021/06/07 05:24:42;;;;;;;;;10.75;9.75;;;;;18.45;56.10;101901.53;4859930;29;45486;-69
2021/06/07 05:27:08;;;;;;;;;13.00;11.75;;;;;18.39;55.92;101899.97;4885107;29;45467;-69
2021/06/07 05:29:33;;;;;;;;;13.25;11.75;;;;;18.32;56.59;101896.69;4900189;29;46017;-69
2021/06/07 05:31:59;;;;;;;;;12.25;10.75;;;;;18.40;56.63;101900.88;4892562;29;45259;-69
2021/06/07 05:34:24;;;;;;;;;13.00;12.00;;;;;18.39;56.80;101899.97;4898932;29;45363;-69
2021/06/07 05:36:50;;;;;;;;;12.50;12.25;;;;;18.39;55.97;101897.25;4862559;29;45361;-69
2021/06/07 05:39:19;;;;;;;;;11.50;11.50;;;;;18.40;55.86;101903.56;4886453;29;46698;-69
2021/06/07 05:41:45;;;;;;;;;12.75;12.25;;;;;18.33;55.66;101900.28;4892878;29;45712;-69
2021/06/07 05:44:11;;;;;;;;;11.50;11.50;;;;;18.25;55.97;101897.06;4890443;29;46658;-69
2021/06/07 05:46:36;;;;;;;;;13.50;13.50;;;;;18.20;55.92;101894.56;4892020;29;64442;-69
2021/06/07 05:49:01;;;;;;;;;14.00;13.00;;;;;18.24;55.78;101898.00;4885114;29;62365;-69
2021/06/07 05:51:27;;;;;;;;;12.75;12.75;;;;;18.18;55.81;101909.97;4893586;29;65135;-70
2021/06/07 05:53:52;;;;;;;;;13.50;11.00;;;;;18.19;56.34;101905.44;4902599;29;48144;-70
2021/06/07 05:56:18;;;;;;;;;12.50;11.25;;;;;17.77;56.42;101835.25;4897831;29;65006;-83
2021/06/07 05:58:43;;;;;;;;;12.25;11.25;;;;;18.22;56.24;101906.16;4857554;29;49729;-82
2021/06/07 06:01:08;;;;;;;;;12.00;11.00;;;;;18.26;56.37;101898.78;4890183;29;62649;-78
2021/06/07 06:03:34;;;;;;;;;12.50;11.25;;;;;18.36;56.14;101905.53;4865735;29;52750;-77
2021/06/07 06:05:59;;;;;;;;;10.00;9.75;;;;;18.40;56.07;101911.69;4890289;29;45558;-79
2021/06/07 06:08:25;;;;;;;;;10.50;10.50;;;;;18.44;55.64;101911.47;4873706;29;47129;-80
2021/06/07 06:10:50;;;;;;;;;8.75;8.75;;;;;18.43;55.71;101895.31;4879744;29;45503;-79
2021/06/07 06:13:16;;;;;;;;;11.25;11.25;;;;;18.51;55.43;101906.66;4872622;29;45344;-78
2021/06/07 06:15:41;;;;;;;;;11.50;11.50;;;;;18.54;56.18;101908.31;4866844;29;45489;-78
2021/06/07 06:18:06;;;;;;;;;12.00;10.75;;;;;18.57;55.67;101922.56;4893356;28;61868;-79
2021/06/07 06:20:33;;;;;;;;;15.00;12.75;;;;;18.60;55.93;101913.44;4898012;29;62953;-78
2021/06/07 06:22:58;;;;;;;;;12.25;12.00;;;;;18.55;55.39;101899.28;4901890;29;45412;-82
2021/06/07 06:25:24;;;;;;;;;12.75;12.25;;;;;18.68;55.12;101922.06;4875759;29;66702;-82
2021/06/07 06:27:49;;;;;;;;;12.75;11.75;;;;;18.71;55.26;101916.53;4892532;29;45563;-82
2021/06/07 06:30:20;;;;;;;;;12.25;10.25;;;;;18.75;55.40;101915.41;4868981;29;45514;-75
2021/06/07 06:32:48;;;;;;;;;15.50;12.25;;;;;18.73;55.37;101911.91;4854742;29;45418;-82
2021/06/07 06:35:13;;;;;;;;;9.50;9.50;;;;;18.75;55.28;101917.25;4856307;29;45912;-81
2021/06/07 06:37:40;;;;;;;;;11.25;10.25;;;;;18.75;55.14;101912.72;4880872;29;45375;-81
2021/06/07 06:40:06;;;;;;;;;11.50;10.00;;;;;18.79;55.25;101922.41;4897756;29;45453;-81
2021/06/07 06:42:34;;;;;;;;;13.75;13.75;;;;;18.80;55.02;101909.78;4878903;29;45491;-81
2021/06/07 06:45:00;;;;;;;;;11.50;10.25;;;;;18.85;55.01;101916.75;4854021;29;45522;-79
2021/06/07 06:47:25;;;;;;;;;13.25;10.50;;;;;18.78;54.81;101895.47;4897710;29;56084;-80
2021/06/07 06:49:51;;;;;;;;;12.25;12.00;;;;;18.77;54.78;101885.59;4856247;29;63251;-80
2021/06/07 06:52:16;;;;;;;;;17.50;13.75;;;;;18.94;54.45;101919.97;4881405;29;45252;-84
2021/06/07 06:54:41;;;;;;;;;15.75;14.75;;;;;18.88;55.03;101910.31;4860542;29;64866;-80
2021/06/07 06:57:07;;;;;;;;;13.00;13.00;;;;;18.86;54.97;101909.50;4861145;29;65150;-81
2021/06/07 06:59:32;;;;;;;;;13.50;12.75;;;;;18.87;54.71;101912.13;4856880;29;45276;-81
2021/06/07 07:01:58;;;;;;;;;15.75;15.75;;;;;18.93;54.42;101912.78;4881146;29;45267;-80
2021/06/07 07:04:23;;;;;;;;;13.75;13.50;;;;;18.97;54.51;101906.28;4874597;29;45658;-81
2021/06/07 07:06:49;;;;;;;;;15.50;14.00;;;;;18.89;53.84;101895.81;4887414;29;45540;-81
2021/06/07 07:09:14;;;;;;;;;17.50;14.25;;;;;18.85;53.69;101897.81;4888594;29;45578;-81
2021/06/07 07:11:40;;;;;;;;;16.75;14.75;;;;;18.88;53.93;101905.78;4874083;29;45525;-80
2021/06/07 07:14:05;;;;;;;;;14.75;14.25;;;;;18.90;53.69;101910.25;4878686;29;52723;-80
2021/06/07 07:16:31;;;;;;;;;13.25;11.75;;;;;18.83;53.91;101901.56;4871365;29;63484;-81
2021/06/07 07:18:56;;;;;;;;;17.00;15.25;;;;;18.98;53.78;101916.16;4854802;29;45519;-71
2021/06/07 07:21:21;;;;;;;;;16.00;14.00;;;;;19.02;53.61;101917.75;4883353;29;66194;-71
2021/06/07 07:23:47;;;;;;;;;15.50;13.75;;;;;19.08;53.60;101912.06;4894704;29;65661;-72
2021/06/07 07:26:12;;;;;;;;;15.50;14.25;;;;;19.02;53.82;101893.41;4898568;29;46040;-72
2021/06/07 07:28:38;;;;;;;;;15.00;13.75;;;;;19.17;53.47;101916.13;4866691;29;61550;-72
2021/06/07 07:31:03;;;;;;;;;13.50;13.50;;;;;19.21;53.22;101915.91;4882698;29;45390;-69
2021/06/07 07:33:35;;;;;;;;;11.50;11.50;;;;;19.17;53.58;101889.06;4882429;29;61487;-69
2021/06/07 07:36:00;;;;;;;;;12.75;9.50;;;;;19.19;53.25;101879.88;4884158;29;46165;-71
2021/06/07 07:38:26;;;;;;;;;14.50;13.00;;;;;19.43;52.95;101910.28;4883531;29;67020;-69
2021/06/07 07:40:51;;;;;;;;;12.25;12.25;;;;;19.47;52.69;101904.69;4883004;29;62150;-71
2021/06/07 07:43:17;;;;;;;;;15.00;15.00;;;;;19.53;52.29;101916.09;4898948;29;67784;-70
2021/06/07 07:45:42;;;;;;;;;13.25;13.25;;;;;19.56;52.10;101910.53;4893151;29;45463;-70
2021/06/07 07:48:08;;;;;;;;;14.75;13.50;;;;;19.62;52.55;101912.88;4884048;29;45369;-71
2021/06/07 07:50:33;;;;;;;;;14.75;13.75;;;;;19.70;51.96;101911.63;4884371;29;45273;-71
2021/06/07 07:52:59;;;;;;;;;14.75;14.50;;;;;19.70;51.44;101915.22;4884215;29;45242;-70
2021/06/07 07:55:25;;;;;;;;;12.25;12.25;;;;;19.77;51.67;101913.09;4864620;29;46119;-71
2021/06/07 07:57:51;;;;;;;;;12.75;10.50;;;;;19.85;51.86;101912.69;4891428;29;45586;-71
2021/06/07 08:00:18;;;;;;;;;12.75;12.25;;;;;19.86;51.35;101906.31;4854419;29;45436;-70
2021/06/07 08:02:43;;;;;;;;;13.25;10.00;;;;;19.98;51.62;101906.53;4893036;29;45250;-70
2021/06/07 08:05:09;;;;;;;;;12.75;11.00;;;;;20.11;51.24;101908.56;4886647;29;45426;-70
2021/06/07 08:07:35;;;;;;;;;14.75;14.00;;;;;20.08;51.03;101896.09;4883830;29;45338;-70
2021/06/07 08:10:01;;;;;;;;;11.75;9.75;;;;;20.22;50.74;101902.59;4885242;29;45933;-71
2021/06/07 08:12:27;;;;;;;;;12.50;11.50;;;;;20.30;50.29;101909.34;4886264;29;45544;-71
2021/06/07 08:14:52;;;;;;;;;15.75;12.75;;;;;20.35;50.41;101904.53;4886641;29;46175;-71
2021/06/07 08:17:17;;;;;;;;;12.00;11.75;;;;;20.39;50.15;101902.50;4888282;29;45363;-71
2021/06/07 08:19:43;;;;;;;;;10.00;10.00;;;;;20.47;49.98;101908.41;4881880;29;58470;-70
2021/06/07 08:22:09;;;;;;;;;13.00;12.25;;;;;20.54;49.58;101903.50;4887392;29;48459;-70
2021/06/07 08:24:34;;;;;;;;;9.00;9.00;;;;;20.60;49.40;101907.69;4897896;29;45640;-70
2021/06/07 08:27:00;;;;;;;;;10.50;10.50;;;;;20.66;49.76;101908.25;4886094;29;67549;-70
2021/06/07 08:29:26;;;;;;;;;9.00;9.00;;;;;20.69;49.23;101885.53;4898195;29;45960;-70
2021/06/07 08:31:51;;;;;;;;;12.50;10.75;;;;;20.80;49.13;101893.03;4884616;29;45608;-70
2021/06/07 08:34:17;;;;;;;;;8.75;8.00;;;;;20.86;48.64;101898.13;4858909;29;45514;-70
2021/06/07 08:36:42;;;;;;;;;11.75;10.00;;;;;20.92;48.38;101900.50;4886533;29;45406;-70
2021/06/07 08:39:11;;;;;;;;;12.25;9.00;;;;;20.99;48.55;101901.00;4886858;29;48282;-71
2021/06/07 08:41:37;;;;;;;;;12.50;12.50;;;;;21.00;48.40;101895.50;4886348;29;45459;-70
2021/06/07 08:44:03;;;;;;;;;9.50;8.25;;;;;21.13;48.81;101894.75;4886558;29;46027;-70
2021/06/07 08:46:33;;;;;;;;;11.25;11.25;;;;;21.18;47.99;101903.50;4886317;29;45318;-70
2021/06/07 08:49:04;;;;;;;;;8.75;8.75;;;;;21.25;48.44;101904.88;4900351;28;45533;-70
2021/06/07 08:51:29;;;;;;;;;12.50;10.25;;;;;21.29;47.89;101896.47;4890760;29;45889;-70
2021/06/07 08:53:55;;;;;;;;;12.00;10.00;;;;;21.33;47.20;101894.44;4905507;29;51122;-70
2021/06/07 08:56:20;;;;;;;;;11.50;10.50;;;;;21.37;47.78;101898.75;4896501;28;47559;-70
2021/06/07 08:58:47;;;;;;;;;15.50;12.50;;;;;21.37;46.87;101893.31;4888104;29;45646;-69
2021/06/07 09:01:13;;;;;;;;;11.50;10.50;;;;;21.36;47.28;101886.13;4890827;29;45370;-69
2021/06/07 09:03:38;;;;;;;;;11.00;9.25;;;;;21.41;46.55;101897.59;4894859;29;45701;-73
2021/06/07 09:06:04;;;;;;;;;10.50;9.25;;;;;21.39;46.76;101879.66;4884830;29;59193;-73
2021/06/07 09:08:34;;;;;;;;;12.25;11.25;;;;;21.54;46.99;101894.19;4867754;29;45529;-73
2021/06/07 09:11:10;;;;;;;;;8.00;8.00;;;;;21.48;46.43;101880.97;4887066;29;45166;-77
2021/06/07 09:13:36;;;;;;;;;11.75;10.00;;;;;21.57;46.57;101884.00;4885685;29;47507;-76
2021/06/07 09:16:02;;;;;;;;;5.00;5.00;;;;;21.53;45.91;101873.41;4887270;28;45565;-77
2021/06/07 09:18:49;;;;;;;;;7.75;7.75;;;;;21.50;45.82;101869.06;4863062;29;45489;-76
2021/06/07 09:21:16;;;;;;;;;11.00;9.75;;;;;21.52;45.40;101864.41;4890996;29;45507;-75
2021/06/07 09:23:46;;;;;;;;;8.75;6.75;;;;;21.71;46.30;101887.72;4875306;29;47509;-76
2021/06/07 09:26:34;;;;;;;;;11.25;9.25;;;;;21.79;45.55;101894.44;4865002;29;45579;-76
2021/06/07 09:29:02;;;;;;;;;10.25;10.00;;;;;21.81;45.05;101892.47;4883247;29;45424;-77
2021/06/07 09:31:35;;;;;;;;;11.00;10.00;;;;;21.81;44.22;101883.47;4857141;29;46353;-77
2021/06/07 09:34:07;;;;;;;;;7.75;7.25;;;;;21.90;44.36;101898.31;4874828;29;47414;-77
2021/06/07 09:36:33;;;;;;;;;9.00;9.00;;;;;21.93;44.30;101895.41;4894743;29;45562;-76
2021/06/07 09:39:05;;;;;;;;;13.00;12.00;;;;;21.95;44.49;101890.75;4838463;29;45592;-77
2021/06/07 09:41:52;;;;;;;;;10.75;9.00;;;;;21.99;44.11;101900.47;4879388;29;45587;-76
2021/06/07 09:44:34;;;;;;;;;9.25;7.50;;;;;22.00;43.95;101907.66;4894900;29;46093;-77
2021/06/07 09:47:21;;;;;;;;;9.25;9.25;;;;;21.99;43.83;101897.75;4887862;29;45280;-77
2021/06/07 09:50:06;;;;;;;;;7.00;6.00;;;;;22.02;43.66;101903.00;4861260;29;45284;-76
2021/06/07 09:52:43;;;;;;;;;7.50;6.75;;;;;21.78;43.76;101862.78;4868336;29;45911;-76
2021/06/07 09:55:13;;;;;;;;;7.00;6.50;;;;;22.03;43.32;101893.88;4887247;29;47092;-77
2021/06/07 09:57:39;;;;;;;;;6.75;6.25;;;;;21.97;43.26;101872.53;4870648;29;45423;-77
2021/06/07 10:00:05;;;;;;;;;3.50;3.50;;;;;21.93;42.49;101870.94;4858492;29;45462;-77
2021/06/07 10:02:37;;;;;;;;;5.50;5.25;;;;;22.16;41.69;101894.84;4868363;29;45848;-76
2021/06/07 10:05:03;;;;;;;;;4.75;4.75;;;;;22.03;41.42;101866.69;4887174;29;45867;-75
2021/06/07 10:07:28;;;;;;;;;7.00;6.00;;;;;22.19;41.18;101891.94;4872360;29;45412;-76
2021/06/07 10:10:14;;;;;;;;;6.00;6.00;;;;;22.22;41.64;101888.16;4872441;29;45457;-77
2021/06/07 10:12:40;;;;;;;;;8.00;6.75;;;;;22.21;41.27;101881.81;4881190;29;45519;-74
2021/06/07 10:15:10;;;;;;;;;5.50;5.50;;;;;22.29;41.19;101885.97;4872447;29;46211;-74
2021/06/07 10:17:36;;;;;;;;;7.00;7.00;;;;;22.32;41.07;101883.91;4894310;29;45688;-74
2021/06/07 10:22:37;;;;;;;;;8.50;6.75;;;;;22.40;40.97;101886.13;4889438;29;45385;-73
2021/06/07 10:25:04;;;;;;;;;7.00;5.25;;;;;22.47;41.85;101882.06;4892006;29;45404;-69
2021/06/07 10:27:29;;;;;;;;;7.00;7.00;;;;;22.56;41.38;101878.72;4875650;29;45349;-70
2021/06/07 10:29:54;;;;;;;;;6.25;6.25;;;;;22.57;40.54;101876.88;4899357;29;51267;-70
2021/06/07 10:32:28;;;;;;;;;6.00;6.00;;;;;22.59;41.72;101869.50;4864187;28;71405;-70
2021/06/07 10:34:54;;;;;;;;;5.00;5.00;;;;;22.69;41.45;101877.94;4901116;28;47078;-70
2021/06/07 10:37:20;;;;;;;;;8.75;7.75;;;;;22.75;41.19;101874.78;4895925;29;46826;-71
2021/06/07 10:39:46;;;;;;;;;6.25;6.25;;;;;22.78;41.29;101871.88;4883841;29;45436;-69
2021/06/07 10:42:25;;;;;;;;;5.75;5.75;;;;;22.82;41.16;101873.44;4884637;29;45391;-68
2021/06/07 10:44:54;;;;;;;;;8.25;7.75;;;;;22.84;40.75;101873.31;4894517;29;46318;-68
2021/06/07 10:47:25;;;;;;;;;6.25;5.50;;;;;22.80;40.90;101863.59;4896258;29;45439;-70
2021/06/07 10:50:00;;;;;;;;;9.75;7.50;;;;;22.90;41.63;101872.91;4895758;29;45503;-68
2021/06/07 10:52:29;;;;;;;;;8.00;7.00;;;;;22.90;41.09;101867.44;4879792;29;45551;-68
2021/06/07 10:54:55;;;;;;;;;7.00;7.00;;;;;22.96;41.06;101875.22;4886474;29;47373;-67
2021/06/07 10:57:58;;;;;;;;;14.00;14.00;;;;;22.98;40.71;101873.25;4890893;29;45473;-68
2021/06/07 11:00:32;;;;;;;;;7.00;7.00;;;;;22.99;41.48;101866.84;4885670;29;45407;-68
2021/06/07 11:03:00;;;;;;;;;8.50;7.75;;;;;23.02;41.05;101880.25;4885226;29;45435;-67
2021/06/07 11:05:33;;;;;;;;;7.75;7.50;;;;;22.98;41.12;101865.09;4884615;29;46627;-68
2021/06/07 11:08:17;;;;;;;;;9.00;8.00;;;;;23.07;41.30;101874.50;4882819;29;45576;-68
2021/06/07 11:10:43;;;;;;;;;8.50;7.75;;;;;23.10;41.27;101874.31;4885533;29;45464;-69
2021/06/07 11:13:16;;;;;;;;;9.50;8.50;;;;;23.11;41.21;101876.06;4890154;29;46198;-69
2021/06/07 11:15:57;;;;;;;;;8.00;8.00;;;;;23.12;40.72;101867.81;4884326;29;46160;-69
2021/06/07 11:18:35;;;;;;;;;7.50;7.50;;;;;23.12;41.34;101867.81;4883808;29;45539;-68